Time;durP1;ratioP1;P1;durP2;ratioP2;P2;SDS_P1;SDS_P2;PMS_P1;PMS_P2;Temp;Humidity;BMP_temperature;BMP_pressure;BME280_temperature;BME280_humidity;BME280_pressure;Samples;Min_cycle;Max_cycle;Signal;HPM_P1;HPM_P2
2022/05/13 00:00:13;;;;;;;3.25;2.45;;;;;;;19.62;68.91;100300.84;5070852;28;20268;-73
2022/05/13 00:02:43;;;;;;;3.15;2.47;;;;;;;19.50;68.83;100287.91;5050537;28;20205;-73
2022/05/13 00:05:11;;;;;;;3.72;2.53;;;;;;;19.62;67.93;100295.59;5070102;28;20286;-73
2022/05/13 00:07:37;;;;;;;2.58;2.38;;;;;;;19.56;67.91;100290.44;5069981;28;20199;-73
2022/05/13 00:10:06;;;;;;;2.60;2.40;;;;;;;19.59;68.62;100300.88;5070164;28;20203;-74
2022/05/13 00:12:35;;;;;;;5.10;2.60;;;;;;;19.59;66.19;100275.44;5070054;28;20660;-73
2022/05/13 00:15:04;;;;;;;2.40;2.30;;;;;;;19.68;65.65;100270.03;5070132;28;20199;-73
2022/05/13 00:17:31;;;;;;;2.25;2.03;;;;;;;19.84;64.92;100296.03;5034800;28;20268;-74
2022/05/13 00:19:59;;;;;;;7.63;2.42;;;;;;;19.90;64.50;100302.06;5055136;28;20287;-73
2022/05/13 00:22:26;;;;;;;3.00;2.10;;;;;;;19.66;66.23;100281.47;5069700;28;20202;-74
2022/05/13 00:24:54;;;;;;;2.58;2.38;;;;;;;19.78;65.91;100291.78;5071973;28;20663;-73
2022/05/13 00:27:22;;;;;;;3.00;2.80;;;;;;;19.62;66.34;100306.13;5073840;28;20282;-74
2022/05/13 00:29:48;;;;;;;5.50;2.47;;;;;;;19.54;65.88;100260.66;5073540;28;20257;-73
2022/05/13 00:32:16;;;;;;;2.80;2.58;;;;;;;19.71;65.48;100292.78;5072842;28;20222;-73
2022/05/13 00:34:43;;;;;;;3.45;2.60;;;;;;;19.54;66.29;100277.31;5073666;28;20202;-73
2022/05/13 00:37:11;;;;;;;4.20;2.60;;;;;;;19.51;67.09;100266.81;5073191;28;20209;-73
2022/05/13 00:39:38;;;;;;;2.90;2.70;;;;;;;19.60;67.83;100295.63;5073653;28;20579;-73
2022/05/13 00:42:10;;;;;;;4.15;2.78;;;;;;;19.42;70.65;100264.38;5073186;28;20203;-73
2022/05/13 00:44:37;;;;;;;3.53;2.80;;;;;;;19.28;70.55;100296.16;5073290;28;20248;-73
2022/05/13 00:47:04;;;;;;;2.70;2.47;;;;;;;19.25;70.49;100269.03;5073263;28;20222;-73
2022/05/13 00:49:32;;;;;;;3.05;2.78;;;;;;;19.25;72.69;100290.94;5073386;28;20195;-73
2022/05/13 00:52:01;;;;;;;4.43;2.75;;;;;;;18.91;75.33;100273.09;5072852;28;20705;-73
2022/05/13 00:54:30;;;;;;;3.40;2.55;;;;;;;18.84;73.52;100267.06;5073555;28;20256;-73
2022/05/13 00:56:58;;;;;;;4.93;2.72;;;;;;;19.05;73.18;100276.41;5073114;28;20187;-73
2022/05/13 00:59:27;;;;;;;3.63;2.65;;;;;;;19.10;78.32;100285.06;5073002;28;20208;-73
2022/05/13 01:01:54;;;;;;;4.40;4.00;;;;;;;18.96;95.78;100287.03;5072713;28;20701;-73
2022/05/13 01:04:22;;;;;;;8.75;4.28;;;;;;;19.00;100.00;100289.63;5073275;28;20199;-73
2022/05/13 01:06:51;;;;;;;9.90;5.18;;;;;;;18.91;100.00;100292.38;5073098;28;20205;-73
2022/05/13 01:09:19;;;;;;;5.35;4.85;;;;;;;18.46;100.00;100258.88;5038254;28;20194;-73
2022/05/13 01:11:49;;;;;;;11.75;6.25;;;;;;;18.59;100.00;100302.47;5072937;28;20268;-73
2022/05/13 01:14:22;;;;;;;9.55;6.03;;;;;;;18.53;100.00;100298.19;5072493;28;20187;-73
2022/05/13 01:19:34;;;;;;;10.23;6.05;;;;;;;18.09;100.00;100279.47;5072985;28;20205;-73
2022/05/13 01:22:14;;;;;;;7.88;6.25;;;;;;;18.05;100.00;100294.41;5072033;28;20191;-73
2022/05/13 01:24:41;;;;;;;10.77;6.18;;;;;;;17.92;100.00;100292.81;5072703;28;20203;-73
2022/05/13 01:27:08;;;;;;;11.82;5.80;;;;;;;17.62;100.00;100256.44;5072749;28;20310;-74
2022/05/13 01:29:35;;;;;;;17.40;6.20;;;;;;;17.49;100.00;100276.63;5072452;28;20214;-74
2022/05/13 01:32:02;;;;;;;9.15;5.80;;;;;;;17.57;100.00;100281.84;5071985;28;20202;-73
2022/05/13 01:34:29;;;;;;;10.77;5.63;;;;;;;17.51;100.00;100279.25;5072257;28;20199;-73
2022/05/13 01:36:55;;;;;;;6.72;6.03;;;;;;;17.50;100.00;100282.75;5071103;28;20203;-73
2022/05/13 01:39:24;;;;;;;9.77;5.78;;;;;;;17.48;100.00;100279.28;5072491;28;20722;-73
2022/05/13 01:41:50;;;;;;;10.60;5.70;;;;;;;17.39;100.00;100280.22;5049783;28;20199;-73
2022/05/13 01:44:17;;;;;;;10.07;6.38;;;;;;;17.31;100.00;100261.94;5071265;28;21023;-73
2022/05/13 01:46:44;;;;;;;11.77;6.20;;;;;;;17.31;100.00;100277.69;5072409;28;20219;-73
2022/05/13 01:49:11;;;;;;;9.75;6.05;;;;;;;17.33;100.00;100267.19;5036913;28;20199;-73
2022/05/13 01:51:37;;;;;;;9.63;6.13;;;;;;;17.44;100.00;100273.22;5071414;28;20230;-73
2022/05/13 01:54:04;;;;;;;6.00;5.13;;;;;;;17.40;100.00;100283.72;5071610;28;20222;-73
2022/05/13 01:56:33;;;;;;;11.05;5.22;;;;;;;17.39;100.00;100279.34;5036460;28;20218;-73
2022/05/13 01:58:59;;;;;;;9.50;5.30;;;;;;;17.28;100.00;100261.13;5072134;28;20206;-73
2022/05/13 02:01:26;;;;;;;9.52;5.20;;;;;;;17.30;100.00;100286.41;5071696;28;20710;-73
2022/05/13 02:03:53;;;;;;;12.50;7.22;;;;;;;17.16;100.00;100287.41;5071778;28;20203;-73
2022/05/13 02:06:23;;;;;;;13.68;6.95;;;;;;;16.74;100.00;100267.66;5071773;28;20199;-73
2022/05/13 02:08:51;;;;;;;9.50;6.88;;;;;;;16.91;100.00;100278.88;5071288;28;20609;-74
2022/05/13 02:11:19;;;;;;;9.25;6.78;;;;;;;17.08;100.00;100279.66;5072169;28;20281;-74
2022/05/13 02:13:47;;;;;;;7.70;5.47;;;;;;;17.14;100.00;100276.09;5071185;28;20284;-74
2022/05/13 02:16:15;;;;;;;6.78;5.70;;;;;;;16.96;100.00;100269.25;5051118;28;20210;-74
2022/05/13 02:18:42;;;;;;;6.38;5.75;;;;;;;17.09;100.00;100277.88;5044143;28;20889;-74
2022/05/13 02:21:09;;;;;;;8.52;5.82;;;;;;;17.08;100.00;100277.03;5071658;28;20199;-73
2022/05/13 02:23:37;;;;;;;9.13;5.13;;;;;;;17.13;100.00;100277.84;5032410;28;20199;-73
2022/05/13 02:26:06;;;;;;;11.48;6.32;;;;;;;17.18;100.00;100276.06;5071385;28;20616;-73
2022/05/13 02:28:34;;;;;;;7.82;4.90;;;;;;;17.18;100.00;100281.31;5070657;28;20195;-73
2022/05/13 02:31:02;;;;;;;5.07;4.03;;;;;;;17.19;100.00;100280.41;5071301;28;20553;-73
2022/05/13 02:33:30;;;;;;;5.18;4.70;;;;;;;17.14;100.00;100279.59;5051405;28;20225;-73
2022/05/13 02:35:59;;;;;;;5.75;4.82;;;;;;;16.94;100.00;100285.88;5071408;28;20634;-73
2022/05/13 02:38:26;;;;;;;6.57;5.55;;;;;;;17.03;100.00;100278.81;5071655;28;20203;-73
2022/05/13 02:43:37;;;;;;;8.23;4.75;;;;;;;17.05;100.00;100282.25;5041838;28;20699;-73
2022/05/13 02:46:05;;;;;;;7.38;5.10;;;;;;;16.96;100.00;100260.53;5070626;28;20651;-73
2022/05/13 02:48:32;;;;;;;6.45;5.10;;;;;;;17.01;100.00;100283.19;5067990;28;20198;-73
2022/05/13 02:50:59;;;;;;;5.18;4.65;;;;;;;16.84;100.00;100248.38;5070829;28;20272;-73
2022/05/13 02:53:26;;;;;;;5.32;4.82;;;;;;;17.00;100.00;100288.44;5070423;28;20230;-73
2022/05/13 02:55:53;;;;;;;13.90;5.47;;;;;;;17.02;100.00;100297.13;5070815;28;20225;-73
2022/05/13 02:58:20;;;;;;;7.45;5.25;;;;;;;16.95;100.00;100283.22;5070224;28;20222;-73
2022/05/13 03:00:47;;;;;;;8.50;4.93;;;;;;;17.00;100.00;100291.06;5071093;28;20202;-70
2022/05/13 03:03:15;;;;;;;5.60;5.07;;;;;;;17.04;100.00;100282.28;5070101;28;20742;-73
2022/05/13 03:05:42;;;;;;;8.48;5.60;;;;;;;17.07;100.00;100293.63;5071222;28;20190;-70
2022/05/13 03:08:09;;;;;;;6.30;5.07;;;;;;;17.13;100.00;100296.19;5070214;28;20207;-72
2022/05/13 03:10:37;;;;;;;6.25;4.70;;;;;;;17.34;100.00;100311.72;5070670;28;20217;-72
2022/05/13 03:13:06;;;;;;;4.82;4.35;;;;;;;17.34;100.00;100303.84;5070239;28;20297;-73
2022/05/13 03:15:34;;;;;;;9.70;4.75;;;;;;;17.37;100.00;100312.59;5070674;28;20286;-72
2022/05/13 03:18:00;;;;;;;41.95;20.80;;;;;;;16.96;100.00;100235.19;5070544;28;20602;-75
2022/05/13 03:20:29;;;;;;;6.95;5.40;;;;;;;17.57;100.00;100315.94;5046036;28;20624;-77
2022/05/13 03:22:56;;;;;;;8.63;4.93;;;;;;;17.54;100.00;100321.16;5057351;28;20202;-76
2022/05/13 03:25:23;;;;;;;9.23;5.72;;;;;;;17.57;100.00;100323.78;5038259;28;20584;-77
2022/05/13 03:27:50;;;;;;;11.13;5.75;;;;;;;17.62;100.00;100324.63;5056538;28;20199;-78
2022/05/13 03:30:24;;;;;;;26.75;12.20;;;;;;;17.84;100.00;100294.66;5070256;28;20198;-76
2022/05/13 03:32:51;;;;;;;9.60;5.43;;;;;;;18.18;100.00;100319.63;5070641;28;20694;-77
2022/05/13 03:35:18;;;;;;;9.27;4.30;;;;;;;18.67;100.00;100329.50;5035072;28;20203;-73
2022/05/13 03:37:47;;;;;;;13.38;5.85;;;;;;;19.24;100.00;100333.91;5070296;28;20218;-77
2022/05/13 03:40:15;;;;;;;15.25;6.25;;;;;;;19.86;100.00;100313.56;5066424;28;20203;-77
2022/05/13 03:42:43;;;;;;;11.43;5.57;;;;;;;20.64;100.00;100349.72;5070207;28;20247;-78
2022/05/13 03:45:11;;;;;;;10.68;4.97;;;;;;;21.18;94.61;100368.72;5070648;28;20203;-78
2022/05/13 03:47:38;;;;;;;14.82;5.63;;;;;;;21.62;88.66;100333.31;5069436;28;20630;-78
2022/05/13 03:50:07;;;;;;;21.23;6.63;;;;;;;22.24;84.62;100353.66;5066834;28;20218;-77
2022/05/13 03:52:34;;;;;;;9.05;5.28;;;;;;;22.66;77.01;100361.22;5070355;28;20206;-76
2022/05/13 03:55:04;;;;;;;8.13;4.65;;;;;;;22.92;75.34;100355.19;5051884;28;20226;-77
2022/05/13 03:57:31;;;;;;;8.15;4.63;;;;;;;23.15;71.78;100336.81;5070144;28;20206;-77
2022/05/13 04:00:00;;;;;;;7.25;5.45;;;;;;;23.89;69.74;100339.59;5072951;28;20245;-76
2022/05/13 04:02:28;;;;;;;11.27;5.30;;;;;;;24.59;66.37;100360.91;5073889;28;20202;-76
2022/05/13 04:10:25;;;;;;;8.23;4.68;;;;;;;25.70;57.87;100381.22;5068289;28;20215;-77
2022/05/13 04:18:19;;;;;;;12.52;5.30;;;;;;;25.92;57.72;100366.09;5070412;28;20202;-69
2022/05/13 04:20:47;;;;;;;13.30;5.85;;;;;;;26.25;56.49;100386.88;5073170;28;20210;-76
2022/05/13 04:23:14;;;;;;;8.40;4.80;;;;;;;26.25;56.65;100385.06;5073773;28;20272;-76
2022/05/13 04:25:42;;;;;;;22.35;5.53;;;;;;;25.74;58.75;100376.66;5073779;28;20739;-78
2022/05/13 04:28:09;;;;;;;12.80;5.07;;;;;;;26.07;58.70;100370.75;5073799;28;20203;-77
2022/05/13 04:30:36;;;;;;;8.63;5.20;;;;;;;26.32;57.13;100353.75;5073344;28;20213;-77
2022/05/13 04:33:02;;;;;;;8.13;4.85;;;;;;;26.66;56.05;100380.53;5073660;28;20673;-77
2022/05/13 04:35:30;;;;;;;8.07;5.18;;;;;;;26.80;54.67;100378.06;5073068;28;20217;-76
2022/05/13 04:37:57;;;;;;;10.45;5.93;;;;;;;26.72;54.89;100369.56;5073368;28;20197;-76
2022/05/13 04:40:24;;;;;;;11.38;6.18;;;;;;;27.19;54.75;100380.66;5073243;28;20205;-77
2022/05/13 04:42:51;;;;;;;13.65;5.93;;;;;;;27.67;53.05;100393.41;5073212;28;20229;-79
2022/05/13 04:45:23;;;;;;;7.47;6.70;;;;;;;25.82;54.53;100354.16;5063050;28;20218;-79
2022/05/13 04:50:37;;;;;;;15.75;6.85;;;;;;;25.93;55.19;100378.47;5082822;28;20210;-79
2022/05/13 04:53:05;;;;;;;16.63;7.72;;;;;;;26.92;53.10;100384.66;5074754;28;20206;-77
2022/05/13 04:55:33;;;;;;;7.90;6.40;;;;;;;27.06;52.87;100366.22;5073609;28;20207;-77
2022/05/13 04:58:01;;;;;;;13.23;7.47;;;;;;;27.65;52.66;100368.63;5073724;28;20198;-77
2022/05/13 05:00:28;;;;;;;16.35;7.13;;;;;;;27.97;52.33;100386.50;5054666;28;20221;-76
2022/05/13 05:02:55;;;;;;;18.65;8.32;;;;;;;27.90;53.62;100363.75;5054399;28;20205;-76
2022/05/13 05:05:22;;;;;;;22.85;8.68;;;;;;;28.49;52.88;100384.66;5073324;28;20194;-76
2022/05/13 05:07:49;;;;;;;13.20;6.30;;;;;;;28.79;52.60;100394.66;5072817;28;20205;-76
2022/05/13 05:10:18;;;;;;;13.70;6.03;;;;;;;29.25;52.40;100392.94;5072361;28;20612;-76
2022/05/13 05:12:45;;;;;;;16.45;6.45;;;;;;;29.60;50.59;100361.53;5053538;28;20194;-76
2022/05/13 05:15:14;;;;;;;23.70;7.18;;;;;;;30.08;49.82;100382.69;5072112;28;20226;-76
2022/05/13 05:17:40;;;;;;;18.95;6.30;;;;;;;30.41;48.12;100393.13;5072456;28;20225;-76
2022/05/13 05:20:08;;;;;;;38.47;8.68;;;;;;;30.33;47.73;100395.41;5072879;28;20202;-76
2022/05/13 05:22:35;;;;;;;51.58;10.18;;;;;;;29.30;48.93;100409.59;5073061;28;20194;-77
2022/05/13 05:25:02;;;;;;;28.08;8.48;;;;;;;28.52;50.74;100404.97;5073523;28;20629;-77
2022/05/13 05:27:29;;;;;;;27.55;9.27;;;;;;;28.21;52.28;100404.88;5073361;28;20190;-75
2022/05/13 05:29:55;;;;;;;30.50;8.68;;;;;;;28.01;53.21;100403.19;5038533;28;20275;-77
2022/05/13 05:32:24;;;;;;;25.17;8.25;;;;;;;27.80;53.72;100405.16;5072377;28;20202;-76
2022/05/13 05:34:50;;;;;;;26.73;8.05;;;;;;;27.00;56.30;100406.47;5072121;28;20256;-76
2022/05/13 05:37:17;;;;;;;37.38;8.52;;;;;;;26.44;58.15;100401.03;5072391;28;20625;-76
2022/05/13 05:39:44;;;;;;;19.75;7.70;;;;;;;26.35;59.51;100402.34;5072480;28;20553;-76
2022/05/13 05:42:11;;;;;;;20.02;8.27;;;;;;;26.38;60.00;100401.31;5071669;28;20646;-76
2022/05/13 05:44:37;;;;;;;25.95;9.25;;;;;;;26.43;60.12;100378.06;5071793;28;20201;-76
2022/05/13 05:47:05;;;;;;;27.38;8.82;;;;;;;26.49;61.28;100373.31;5072605;28;20198;-76
2022/05/13 05:49:33;;;;;;;40.25;9.85;;;;;;;26.88;58.43;100359.13;5072776;28;20206;-76
2022/05/13 05:52:00;;;;;;;13.15;8.80;;;;;;;27.00;58.32;100401.97;5072505;28;20199;-76
2022/05/13 05:57:17;;;;;;;21.00;8.20;;;;;;;26.55;59.98;100372.16;5056037;28;20209;-76
2022/05/13 05:59:45;;;;;;;33.30;9.00;;;;;;;24.76;66.21;100400.06;5071799;28;20198;-77
2022/05/13 06:02:13;;;;;;;41.40;8.70;;;;;;;23.81;70.04;100391.97;5071526;28;20210;-77
2022/05/13 06:04:41;;;;;;;25.95;7.63;;;;;;;24.34;68.13;100392.75;5071474;28;20598;-76
2022/05/13 06:07:11;;;;;;;30.23;7.97;;;;;;;24.38;67.62;100399.69;5071216;28;20226;-77
2022/05/13 06:09:38;;;;;;;26.27;8.35;;;;;;;24.46;69.58;100376.41;5071437;28;20198;-77
2022/05/13 06:12:07;;;;;;;18.35;7.55;;;;;;;24.41;69.05;100330.63;5071620;28;20861;-77
2022/05/13 06:14:34;;;;;;;30.98;8.90;;;;;;;24.79;70.41;100387.53;5071585;28;20227;-77
2022/05/13 06:17:01;;;;;;;25.85;9.25;;;;;;;24.66;72.13;100387.13;5071320;28;20194;-77
2022/05/13 06:19:28;;;;;;;21.83;9.57;;;;;;;24.66;73.65;100388.91;5071311;28;20207;-77
2022/05/13 06:21:56;;;;;;;23.35;8.02;;;;;;;24.72;74.67;100382.53;5070819;28;20210;-76
2022/05/13 06:24:23;;;;;;;18.08;8.20;;;;;;;24.76;74.64;100379.69;5071438;28;20210;-77
2022/05/13 06:26:51;;;;;;;20.92;8.48;;;;;;;24.69;74.30;100380.84;5071510;28;20202;-77
2022/05/13 06:29:19;;;;;;;15.20;8.00;;;;;;;24.57;76.61;100381.31;5071259;28;20195;-77
2022/05/13 06:31:45;;;;;;;24.30;8.90;;;;;;;24.63;75.36;100389.03;5070781;28;20205;-77
2022/05/13 06:34:13;;;;;;;23.35;8.80;;;;;;;23.84;76.87;100351.25;5071091;28;20223;-77
2022/05/13 06:36:40;;;;;;;27.05;9.27;;;;;;;23.83;78.04;100384.81;5071085;28;20671;-77
2022/05/13 06:39:08;;;;;;;16.67;8.35;;;;;;;23.51;78.50;100374.44;5070915;28;20225;-77
2022/05/13 06:41:37;;;;;;;16.30;8.57;;;;;;;23.68;78.00;100385.38;5071207;28;20533;-77
2022/05/13 06:44:05;;;;;;;19.80;9.10;;;;;;;23.30;76.08;100327.50;5070586;28;20230;-77
2022/05/13 06:46:33;;;;;;;27.58;7.65;;;;;;;23.70;73.30;100386.16;5070585;28;20201;-77
2022/05/13 06:49:00;;;;;;;13.18;6.40;;;;;;;23.50;70.90;100384.22;5070762;28;20206;-77
2022/05/13 06:51:27;;;;;;;14.95;7.03;;;;;;;23.76;70.21;100390.41;5070814;28;20689;-77
2022/05/13 06:53:54;;;;;;;22.73;7.25;;;;;;;23.85;67.18;100383.00;5071262;28;20230;-76
2022/05/13 06:56:22;;;;;;;14.73;5.90;;;;;;;23.62;66.03;100410.25;5071004;28;20202;-77
2022/05/13 06:58:49;;;;;;;9.85;5.78;;;;;;;23.69;65.76;100400.31;5070648;28;20599;-76
2022/05/13 07:01:17;;;;;;;10.43;6.18;;;;;;;23.55;62.69;100376.97;5070884;28;20203;-77
2022/05/13 07:03:44;;;;;;;13.20;4.78;;;;;;;23.80;62.89;100400.81;5035009;28;20283;-76
2022/05/13 07:06:11;;;;;;;11.73;5.40;;;;;;;23.86;61.81;100405.94;5070642;28;20721;-77
2022/05/13 07:08:38;;;;;;;11.68;5.10;;;;;;;23.72;60.89;100402.03;5070711;28;20210;-77
2022/05/13 07:11:04;;;;;;;6.22;5.47;;;;;;;23.81;61.42;100404.34;5070567;28;20195;-76
2022/05/13 07:13:33;;;;;;;13.48;5.43;;;;;;;23.93;60.71;100402.16;5034961;28;20191;-77
2022/05/13 07:15:59;;;;;;;9.93;6.13;;;;;;;24.19;59.85;100404.78;5070344;28;20203;-77
2022/05/13 07:18:26;;;;;;;15.73;6.88;;;;;;;24.13;60.58;100383.81;5070274;28;20706;-76
2022/05/13 07:20:53;;;;;;;13.15;7.30;;;;;;;24.18;61.62;100402.19;5070628;28;20689;-76
2022/05/13 07:23:20;;;;;;;21.05;8.90;;;;;;;24.29;62.71;100392.06;5070246;28;20662;-76
2022/05/13 07:25:47;;;;;;;27.25;8.20;;;;;;;24.25;63.24;100400.19;5070381;28;20206;-76
2022/05/13 07:28:13;;;;;;;17.75;7.47;;;;;;;23.96;61.38;100340.25;5070315;28;20195;-77
2022/05/13 07:30:42;;;;;;;16.73;8.70;;;;;;;24.43;61.61;100392.44;5070142;28;20629;-72
2022/05/13 07:33:08;;;;;;;13.02;6.65;;;;;;;24.57;59.27;100394.56;5034797;28;20202;-71
2022/05/13 07:35:35;;;;;;;19.30;6.50;;;;;;;24.43;57.50;100327.94;5073628;28;20227;-71
2022/05/13 07:38:02;;;;;;;10.85;4.50;;;;;;;24.80;53.58;100386.59;5074224;28;20217;-71
2022/05/13 07:43:13;;;;;;;12.00;4.80;;;;;;;25.02;55.41;100387.53;5044145;28;20630;-71
2022/05/13 07:45:39;;;;;;;13.23;5.18;;;;;;;25.23;54.50;100384.94;5074096;28;20572;-71
2022/05/13 07:48:08;;;;;;;22.60;5.32;;;;;;;25.29;55.07;100390.03;5074200;28;20202;-71
2022/05/13 07:50:35;;;;;;;13.73;5.20;;;;;;;25.31;54.75;100390.81;5074047;28;20195;-70
2022/05/13 07:53:02;;;;;;;7.13;4.88;;;;;;;25.35;54.24;100363.22;5074030;28;20210;-75
2022/05/13 07:55:29;;;;;;;5.45;4.82;;;;;;;25.58;54.09;100373.78;5073691;28;20736;-75
2022/05/13 07:57:56;;;;;;;9.40;4.55;;;;;;;25.44;53.96;100387.59;5074052;28;20202;-75
2022/05/13 08:00:27;;;;;;;6.95;4.65;;;;;;;25.27;53.52;100322.84;5038831;28;20199;-75
2022/05/13 08:02:55;;;;;;;17.40;5.05;;;;;;;25.65;54.17;100384.06;5038491;28;20282;-75
2022/05/13 08:05:24;;;;;;;10.80;5.05;;;;;;;25.68;53.90;100361.84;5073733;28;20797;-75
2022/05/13 08:08:00;;;;;;;10.88;4.55;;;;;;;25.40;53.18;100316.94;5073624;28;20198;-75
2022/05/13 08:10:27;;;;;;;13.63;5.38;;;;;;;25.71;55.09;100375.00;5073651;28;20224;-75
2022/05/13 08:12:53;;;;;;;10.48;5.30;;;;;;;25.73;55.09;100377.56;5038165;28;20198;-75
2022/05/13 08:15:21;;;;;;;14.55;4.97;;;;;;;25.86;55.74;100382.31;5073344;28;20705;-75
2022/05/13 08:17:47;;;;;;;5.65;4.63;;;;;;;25.84;55.16;100381.50;5073860;28;20199;-75
2022/05/13 08:20:14;;;;;;;6.93;4.80;;;;;;;25.81;56.41;100376.34;5073577;28;20199;-75
2022/05/13 08:22:42;;;;;;;9.30;5.40;;;;;;;25.81;57.22;100379.00;5073344;28;20233;-75
2022/05/13 08:25:10;;;;;;;11.02;5.65;;;;;;;25.68;58.41;100377.78;5037845;28;20213;-75
2022/05/13 08:27:37;;;;;;;12.25;6.07;;;;;;;25.76;58.20;100367.69;5073276;28;20221;-75
2022/05/13 08:30:04;;;;;;;12.57;5.90;;;;;;;25.87;58.81;100368.09;5073164;28;20206;-75
2022/05/13 08:32:32;;;;;;;14.18;6.38;;;;;;;25.75;58.27;100328.78;5038113;28;20202;-75
2022/05/13 08:34:59;;;;;;;13.27;6.47;;;;;;;25.96;59.41;100362.41;5073076;28;20226;-76
2022/05/13 08:37:26;;;;;;;9.10;6.22;;;;;;;26.06;57.33;100369.03;5073124;28;20285;-75
2022/05/13 08:39:55;;;;;;;24.85;6.50;;;;;;;26.17;58.52;100343.75;5073245;28;20195;-75
2022/05/13 08:42:35;;;;;;;17.27;5.95;;;;;;;26.46;57.71;100368.16;5073272;28;20280;-75
2022/05/13 08:45:02;;;;;;;12.20;6.22;;;;;;;26.10;58.11;100344.03;5072506;28;20225;-75
2022/05/13 08:47:36;;;;;;;11.73;6.20;;;;;;;26.27;57.99;100350.41;5072846;28;20213;-75
2022/05/13 08:50:09;;;;;;;12.05;6.15;;;;;;;26.49;57.11;100360.03;5072757;28;20233;-75
2022/05/13 08:55:35;;;;;;;10.88;6.00;;;;;;;26.74;56.40;100357.09;5059953;28;20308;-75
2022/05/13 08:58:05;;;;;;;9.70;5.90;;;;;;;26.68;56.40;100351.19;5052760;28;20227;-75
2022/05/13 09:00:36;;;;;;;8.07;5.63;;;;;;;26.85;56.89;100344.16;5052872;28;20207;-75
2022/05/13 09:03:09;;;;;;;7.78;5.25;;;;;;;26.83;55.49;100362.00;5052805;28;20199;-75
2022/05/13 09:05:42;;;;;;;9.43;5.07;;;;;;;26.78;54.87;100348.03;5052899;28;20207;-75
2022/05/13 09:08:09;;;;;;;16.08;5.25;;;;;;;26.60;54.83;100340.91;5052828;28;20207;-75
2022/05/13 09:10:45;;;;;;;8.60;5.53;;;;;;;26.83;55.11;100348.69;5052926;28;20637;-75
2022/05/13 09:13:16;;;;;;;8.15;5.15;;;;;;;27.00;54.57;100332.75;5052600;28;20593;-75
2022/05/13 09:15:48;;;;;;;9.95;5.20;;;;;;;27.12;53.44;100352.63;5052687;28;20637;-75
2022/05/13 09:18:23;;;;;;;10.35;5.05;;;;;;;27.18;51.75;100341.69;5052683;28;20195;-75
2022/05/13 09:20:56;;;;;;;11.50;4.03;;;;;;;27.24;48.66;100351.16;5052470;28;20306;-75
2022/05/13 09:23:23;;;;;;;7.85;4.05;;;;;;;27.38;48.33;100348.66;5052627;28;20192;-74
2022/05/13 09:26:05;;;;;;;6.10;4.05;;;;;;;27.28;46.67;100336.75;5052280;28;20711;-75
2022/05/13 09:28:34;;;;;;;4.50;3.28;;;;;;;27.47;46.73;100342.91;5052482;28;20195;-75
2022/05/13 09:31:18;;;;;;;4.20;3.63;;;;;;;27.50;47.22;100332.94;5052329;28;20238;-75
2022/05/13 09:33:47;;;;;;;6.38;3.85;;;;;;;27.58;48.10;100330.78;5052076;28;20205;-75
2022/05/13 09:36:33;;;;;;;12.23;4.43;;;;;;;27.22;50.13;100337.91;5051878;28;20620;-75
2022/05/13 09:39:13;;;;;;;6.93;4.53;;;;;;;27.46;50.18;100323.44;5052121;28;20227;-76
2022/05/13 09:41:41;;;;;;;5.15;3.50;;;;;;;27.56;46.83;100313.16;5050110;28;20206;-75
2022/05/13 09:44:11;;;;;;;4.13;3.25;;;;;;;27.73;46.25;100315.81;5051761;28;20223;-76
2022/05/13 09:46:40;;;;;;;9.32;3.33;;;;;;;27.56;45.83;100315.81;5052155;28;20202;-75
2022/05/13 09:49:14;;;;;;;6.05;3.75;;;;;;;27.73;45.17;100309.59;5052098;28;20214;-75
2022/05/13 09:51:53;;;;;;;4.47;3.60;;;;;;;27.86;47.20;100305.38;5051794;28;20682;-76
2022/05/13 09:54:25;;;;;;;6.03;3.97;;;;;;;27.92;47.49;100303.25;5051894;28;20585;-72
2022/05/13 09:57:04;;;;;;;7.57;4.13;;;;;;;27.63;48.45;100306.56;5050993;28;20204;-72
2022/05/13 09:59:37;;;;;;;16.73;4.22;;;;;;;27.82;48.86;100290.50;5051983;28;20667;-72
2022/05/13 10:02:19;;;;;;;9.40;3.80;;;;;;;27.89;47.80;100298.09;5051745;28;20206;-72
2022/05/13 10:04:51;;;;;;;5.10;3.20;;;;;;;27.96;46.29;100294.16;5051836;28;20207;-72
2022/05/13 10:07:18;;;;;;;10.20;4.65;;;;;;;28.04;46.99;100293.72;5051449;28;20219;-72
2022/05/13 10:15:25;;;;;;;3.88;3.45;;;;;;;28.18;45.90;100280.56;5051466;28;20804;-72
2022/05/13 10:17:56;;;;;;;5.82;3.50;;;;;;;28.14;46.17;100262.13;5051592;28;20206;-72
2022/05/13 10:20:29;;;;;;;5.05;3.08;;;;;;;28.27;45.49;100272.06;5051227;28;20198;-72
2022/05/13 10:23:03;;;;;;;11.82;3.42;;;;;;;28.37;45.99;100262.59;5032657;28;20195;-71
2022/05/13 10:25:33;;;;;;;7.18;3.60;;;;;;;28.57;46.77;100270.34;5051026;28;20226;-71
2022/05/13 10:28:08;;;;;;;8.07;3.80;;;;;;;28.53;46.08;100268.81;5051077;28;20203;-71
2022/05/13 10:30:42;;;;;;;8.02;3.80;;;;;;;28.48;46.37;100262.84;5051392;28;20194;-71
2022/05/13 10:33:16;;;;;;;7.00;3.58;;;;;;;28.26;46.17;100264.13;5051149;28;20601;-72
2022/05/13 10:35:50;;;;;;;7.13;3.28;;;;;;;28.14;46.25;100249.66;5051004;28;20233;-71
2022/05/13 10:38:26;;;;;;;13.73;3.50;;;;;;;28.28;45.89;100254.25;5050911;28;20250;-71
2022/05/13 10:40:56;;;;;;;7.82;3.40;;;;;;;28.29;44.80;100237.31;5050982;28;20200;-74
2022/05/13 10:43:29;;;;;;;5.45;3.45;;;;;;;28.38;44.50;100258.97;5033418;28;20226;-74
2022/05/13 10:46:07;;;;;;;3.00;2.75;;;;;;;28.48;42.10;100252.19;5070838;28;20194;-74
2022/05/13 10:48:34;;;;;;;8.20;3.70;;;;;;;28.61;42.54;100248.84;5071007;28;20194;-74
2022/05/13 10:51:09;;;;;;;5.07;3.50;;;;;;;28.64;41.68;100249.53;5070724;28;20202;-74
2022/05/13 10:53:51;;;;;;;5.65;2.83;;;;;;;28.75;41.57;100236.47;5071080;28;20225;-74
2022/05/13 10:56:25;;;;;;;6.75;3.17;;;;;;;28.72;41.31;100236.63;5070671;28;20229;-74
2022/05/13 10:59:01;;;;;;;6.93;3.08;;;;;;;28.86;42.06;100236.69;5035935;28;20670;-74
2022/05/13 11:01:41;;;;;;;6.57;2.63;;;;;;;28.86;40.82;100212.66;5070481;28;20194;-74
2022/05/13 11:04:18;;;;;;;2.90;2.65;;;;;;;28.95;40.73;100228.16;5070587;28;20202;-74
2022/05/13 11:07:00;;;;;;;4.78;3.10;;;;;;;28.95;41.83;100225.50;5070496;28;20257;-74
2022/05/13 11:09:37;;;;;;;19.25;3.85;;;;;;;29.22;41.83;100224.78;5070168;28;20198;-74
2022/05/13 11:12:13;;;;;;;9.25;3.22;;;;;;;29.04;41.11;100226.75;5070388;28;20577;-74
2022/05/13 11:14:58;;;;;;;4.65;3.00;;;;;;;29.18;40.18;100223.28;5070195;28;20201;-74
2022/05/13 11:17:38;;;;;;;8.93;3.15;;;;;;;29.12;40.55;100207.59;5070397;28;20205;-74
2022/05/13 11:20:18;;;;;;;10.38;3.25;;;;;;;29.23;40.47;100207.81;5070167;28;20198;-74
2022/05/13 11:22:52;;;;;;;3.97;2.40;;;;;;;29.16;38.95;100203.78;5070283;28;20198;-74
2022/05/13 11:28:51;;;;;;;4.32;2.92;;;;;;;29.02;39.20;100194.81;5070506;28;20674;-74
2022/05/13 11:31:34;;;;;;;5.63;2.75;;;;;;;29.05;39.80;100196.41;4949678;28;20229;-74
2022/05/13 11:34:08;;;;;;;15.85;3.30;;;;;;;29.17;39.58;100193.03;4950048;28;20230;-74
2022/05/13 11:36:44;;;;;;;8.23;2.95;;;;;;;29.50;39.80;100198.19;4949808;28;20628;-74
2022/05/13 11:39:33;;;;;;;3.92;2.63;;;;;;;29.30;39.28;100185.16;4949647;28;20639;-74
2022/05/13 11:42:12;;;;;;;6.97;2.65;;;;;;;29.46;39.79;100192.19;4949574;28;20214;-74
2022/05/13 11:45:02;;;;;;;13.45;2.97;;;;;;;29.56;39.64;100184.44;4949808;28;20217;-74
2022/05/13 11:47:43;;;;;;;3.45;3.00;;;;;;;29.37;39.68;100170.47;4950071;28;20300;-74
2022/05/13 11:50:11;;;;;;;4.43;2.78;;;;;;;29.39;38.49;100171.25;4949699;28;20198;-74
2022/05/13 11:52:46;;;;;;;6.05;2.65;;;;;;;29.32;38.87;100172.59;4949712;28;20604;-73
2022/05/13 11:55:17;;;;;;;6.85;2.75;;;;;;;29.67;39.23;100171.28;4917679;29;20872;-74
2022/05/13 11:57:46;;;;;;;4.00;2.70;;;;;;;29.58;38.16;100163.81;4949481;28;20203;-74
2022/05/13 12:00:23;;;;;;;5.03;2.25;;;;;;;29.65;37.76;100165.16;4949552;28;20198;-74
2022/05/13 12:02:55;;;;;;;3.72;2.80;;;;;;;29.30;38.22;100153.97;4949827;28;20769;-75
2022/05/13 12:05:31;;;;;;;11.35;3.33;;;;;;;29.38;38.43;100158.84;4949444;29;20289;-74